Inkom, Idaho
Current Conditions -  °F | °C
As of 4:53 AM on Monday 26 Jan 2015 (Local Time) from KPIH Reporting Station
Moderate Fog Moderate Fog  
Wind Chill: 23°   Ceiling: 200
Heat Index: 28°   Visibility: 0.25mi
Dew Point: 28°   Wind: 5mph
Humidity: 100%   Direction: 60°ENE
Pressure: 30.43"   Gusts: NA
Location:  42.8°N, 112.25°W
Report Text: KPIH 261153Z AUTO 06004KT 1/4SM R21/1200V1800FT FZFG VV002 M02/M02 A3043 RMK AO2 SLP328 I1001 I6004 T10221022 11006 21022 50001
Loading
Personal Weather Stations






























Interactive Weather Map New forecast layout! Learn more

10-Day Weather Forecast

Advertisements
Track Severe Weather on mobile